Nearby METAR* Reports

*"METAR [Météorologique Aviation Régulière] is the international standard code format for hourly surface weather observations which is analogous to the SA coding currently used in the US. The acronym roughly translates from French as Aviation Routine Weather Report." (Source: https://www.ncdc.noaa.gov/wdcmet/data-access-search-viewer-tools/metar-terminal-aerodrome-forecast-taf-faq)

 

KTEB - Teterboro, New Jersey, USA
Distance from station: ENE 2mi, 3km
Updated: 09/30/2020 4:51pm
Clear
Clear
 Wind from WSW
Wind: WSW 13 mph , 20 km/h
Temperature: 70°F , 21°C
Dew Point: 46°F , 8°C
Humidity: 43%
Barometer: 29.74 inHg , 1007.1 hPa
Clouds: Clear
Visibility: 10 miles , 16 km
2020/09/30 20:51 KTEB 302051Z 25011KT 10SM CLR 21/08 A2974 RMK AO2 SLP071 T02060083 50003
KNYC - Nyc/Central Park, New York, USA
Distance from station: SE 8mi, 13km
Updated: 09/30/2020 4:51pm
Clear
Clear
 Wind from WSW
Wind: WSW 10 mph , 17 km/h, Gust: 18 mph , 30 km/h
Temperature: 68°F , 20°C
Dew Point: 46°F , 8°C
Humidity: 46%
Barometer: 29.78 inHg , 1008.5 hPa
Clouds: Clear
Visibility: 10 miles , 16 km
2020/09/30 20:51 KNYC 302051Z AUTO 24009G16KT 10SM CLR 20/08 A2978 RMK AO2 SLP076 T02000078 50004 $
KCDW - Caldwell, New Jersey, USA
Distance from station: W 11mi, 17km
Updated: 09/30/2020 4:53pm
Clear
Clear
 Wind from varies
Wind: varies 6 mph , 9 km/h
Temperature: 72°F , 22°C
Dew Point: 45°F , 7°C
Humidity: 38%
Barometer: 29.76 inHg , 1007.8 hPa
Clouds: Clear
Visibility: 10 miles , 16 km
2020/09/30 20:53 KCDW 302053Z VRB05KT 10SM CLR 22/07 A2976 RMK AO2 SLP083 T02170072 51006
 
KLGA - Nyc/La Guardia, New York, USA
Distance from station: ESE 12mi, 19km
Updated: 09/30/2020 4:51pm
Partly cloudy
Partly cloudy
 Wind from SW
Wind: SW 14 mph , 22 km/h, Gust: 23 mph , 37 km/h
Temperature: 72°F , 22°C
Dew Point: 43°F , 6°C
Humidity: 36%
Barometer: 29.75 inHg , 1007.5 hPa
Clouds: Partly cloudy
Visibility: 10 miles , 16 km
Cloud details: Partly cloudy 6000 ft
2020/09/30 20:51 KLGA 302051Z 23012G20KT 10SM SCT060 22/06 A2975 RMK AO2 SLP075 T02170061 50005
KEWR - Newark, New Jersey, USA
Distance from station: SSW 13mi, 20km
Updated: 09/30/2020 4:51pm
Partly cloudy
Partly cloudy
 Wind from SW
Wind: SW 16 mph , 26 km/h, Gust: 25 mph , 41 km/h
Temperature: 70°F , 21°C
Dew Point: 45°F , 7°C
Humidity: 40%
Barometer: 29.76 inHg , 1007.8 hPa
Clouds: Partly cloudy
Visibility: 10 miles , 16 km
Cloud details: Few Clouds 5500 ft
Partly cloudy 25000 ft
2020/09/30 20:51 KEWR 302051Z 23014G22KT 10SM FEW055 SCT250 21/07 A2976 RMK AO2 SLP077 T02110072 50003
KMMU - Morristown Muni, New Jersey, USA
Distance from station: WSW 18mi, 29km
Updated: 09/30/2020 4:45pm
Few Clouds
Few Clouds
 Wind from W
Wind: W 12 mph , 19 km/h, Gust: 21 mph , 33 km/h
Temperature: 70°F , 21°C
Dew Point: 50°F , 10°C
Humidity: 50%
Barometer: 29.77 inHg , 1008.1 hPa
Clouds: Few Clouds
Visibility: 10 miles , 16 km
Cloud details: Few Clouds 5000 ft
2020/09/30 20:45 KMMU 302045Z 26010G18KT 10SM FEW050 21/10 A2977
 
KLDJ - Linden, New Jersey, USA
Distance from station: SSW 19mi, 30km
Updated: 09/30/2020 4:55pm
Clear
Clear
 Wind from W
Wind: W 9 mph , 15 km/h, Gust: 16 mph , 26 km/h
Temperature: 70°F , 21°C
Dew Point: 45°F , 7°C
Humidity: 40%
Barometer: 29.77 inHg , 1008.1 hPa
Clouds: Clear
Visibility: 10 miles , 16 km
2020/09/30 20:55 KLDJ 302055Z AUTO 28008G14KT 10SM CLR 21/07 A2977 RMK AO2 T02100065
KJFK - Nyc/Jfk Arpt, New York, USA
Distance from station: SE 23mi, 36km
Updated: 09/30/2020 4:51pm
Few Clouds
Few Clouds
 Wind from WSW
Wind: WSW 20 mph , 31 km/h
Temperature: 70°F , 21°C
Dew Point: 48°F , 9°C
Humidity: 46%
Barometer: 29.78 inHg , 1008.5 hPa
Clouds: Few Clouds
Visibility: 10 miles , 16 km
Cloud details: Few Clouds 5500 ft
Few Clouds 25000 ft
2020/09/30 20:51 KJFK 302051Z 24017KT 10SM FEW055 FEW250 21/09 A2978 RMK AO2 SLP083 T02110094 50009 $
KHPN - White Plains, New York, USA
Distance from station: NE 25mi, 40km
Updated: 09/30/2020 4:56pm
Few Clouds
Few Clouds
 Wind from SW
Wind: SW 10 mph , 17 km/h, Gust: 17 mph , 28 km/h
Temperature: 66°F , 19°C
Dew Point: 45°F , 7°C
Humidity: 46%
Barometer: 29.75 inHg , 1007.5 hPa
Clouds: Few Clouds
Visibility: 10 miles , 16 km
Cloud details: Few Clouds 5000 ft
2020/09/30 20:56 KHPN 302056Z 23009G15KT 160V280 10SM FEW050 19/07 A2975 RMK AO2 SLP071 T01940067 50008
 
KSMQ - Somerville, New Jersey, USA
Distance from station: WSW 35mi, 56km
Updated: 09/30/2020 2:53pm
NOT Current
Mostly cloudy
Mostly cloudy
 Wind from varies
Wind: varies 3 mph , 6 km/h, Gust: 17 mph , 28 km/h
Temperature: 68°F , 20°C
Dew Point: 48°F , 9°C
Humidity: 49%
Barometer: 29.76 inHg , 1007.8 hPa
Clouds: Mostly cloudy
Visibility: 10 miles , 16 km
Cloud details: Mostly cloudy 5500 ft
2020/09/30 18:53 KSMQ 301853Z AUTO VRB03G15KT 10SM BKN055 20/09 A2976 RMK AO2 SLP078 T02000089
K12N - Andover, New Jersey, USA
Distance from station: WNW 36mi, 57km
Updated: 09/30/2020 4:54pm

 Wind from SW
Wind: SW 12 mph , 19 km/h, Gust: 20 mph , 31 km/h
Temperature: 66°F , 19°C
Dew Point: 46°F , 8°C
Humidity: 49%
Barometer: 29.76 inHg , 1007.8 hPa
2020/09/30 20:54 K12N 302054Z AUTO 22010G17KT 180V250 19/08 A2976 RMK AO1 SLP076 T01940078 51002
KFRG - Farmingdale, New York, USA
Distance from station: ESE 36mi, 58km
Updated: 09/30/2020 4:53pm
Clear
Clear
 Wind from WSW
Wind: WSW 12 mph , 19 km/h
Temperature: 70°F , 21°C
Dew Point: 46°F , 8°C
Humidity: 43%
Barometer: 29.77 inHg , 1008.1 hPa
Clouds: Clear
Visibility: 10 miles , 16 km
2020/09/30 20:53 KFRG 302053Z 25010KT 10SM CLR 21/08 A2977 RMK AO2 SLP079 T02110078 51012
 
KFWN - Sussex, New Jersey, USA
Distance from station: NW 37mi, 60km
Updated: 09/30/2020 4:53pm
Clear
Clear
 Wind from SW
Wind: SW 6 mph , 9 km/h
Temperature: 68°F , 20°C
Dew Point: 46°F , 8°C
Humidity: 46%
Barometer: 29.75 inHg , 1007.5 hPa
Clouds: Clear
Visibility: 10 miles , 16 km
2020/09/30 20:53 KFWN 302053Z AUTO 22005KT 10SM CLR 20/08 A2975 RMK AO2 SLP073 T02000078 51005
KSWF - Newburgh/Stewart, New York, USA
Distance from station: 0 44mi, 72km
Updated: 09/30/2020 4:45pm
Few Clouds
Few Clouds
 Wind from W
Wind: W 14 mph , 22 km/h, Gust: 21 mph , 33 km/h
Temperature: 68°F , 20°C
Dew Point: 46°F , 8°C
Humidity: 46%
Barometer: 29.74 inHg , 1007.1 hPa
Clouds: Few Clouds
Visibility: 10 miles , 16 km
Cloud details: Few Clouds 6000 ft
2020/09/30 20:45 KSWF 302045Z 26012G18KT 10SM FEW060 20/08 A2974
KMGJ - Montgomery, New York, USA
Distance from station: NNW 47mi, 75km
Updated: 09/30/2020 4:54pm
Mostly cloudy
Mostly cloudy
 Wind from SSW
Wind: SSW 17 mph , 28 km/h
Temperature: 64°F , 18°C
Dew Point: 46°F , 8°C
Humidity: 52%
Barometer: 29.74 inHg , 1007.1 hPa
Clouds: Mostly cloudy
Visibility: 10 miles , 16 km
Cloud details: Mostly cloudy 6000 ft
2020/09/30 20:54 KMGJ 302054Z AUTO 21015KT 10SM BKN060 18/08 A2974 RMK AO2 SLP069 T01830078 51009
 
KDXR - Danbury, Connecticut, USA
Distance from station: NE 47mi, 76km
Updated: 09/30/2020 4:53pm
Clear
Clear
 Wind from W
Wind: W 14 mph , 22 km/h, Gust: 25 mph , 41 km/h
Temperature: 66°F , 19°C
Dew Point: 45°F , 7°C
Humidity: 46%
Barometer: 29.76 inHg , 1007.8 hPa
Clouds: Clear
Visibility: 10 miles , 16 km
2020/09/30 20:53 KDXR 302053Z 26012G22KT 10SM CLR 19/07 A2976 RMK AO2 SLP074 T01890072 51012
KBLM - Belmar/Farmdale, New Jersey, USA
Distance from station: S 48mi, 77km
Updated: 09/30/2020 4:56pm
Clear
Clear
 Wind from SW
Wind: SW 12 mph , 19 km/h
Temperature: 70°F , 21°C
Dew Point: 48°F , 9°C
Humidity: 46%
Barometer: 29.80 inHg , 1009.1 hPa
Clouds: Clear
Visibility: 10 miles , 16 km
2020/09/30 20:56 KBLM 302056Z AUTO 23010KT 10SM CLR 21/09 A2980 RMK AO2 SLP091 T02110089 51006